アディスアベバ の空港の天気 - METARとTAF

ボレ国際空港(アディスアベバ) ( HAAB / ADD ) - エチオピア アディスアベバ
飛行場実況気象(Metar)
観測時間08/04 09:00 EAT (08/04 06:00 UTC)
風向・風速南 3m/s
視程-
天気現象
-
気温14℃
湿度100%
気圧1027hPa
METARHAAB 040600Z 19005KT 300 FG OBS 14/14 Q1027
過去の天気等 Google飛行場航空写真 Wunderground天気予報

過去48時間のMETAR

飛行場予報(TAF)
発表時間: 8/04 18:30 EAT (8/04 15:30 UTC)
予報対象時間: 4日21時 EAT ~ 6日3時 EAT
風向・風速西南西 4m/s
視程8000m
5日5時 EAT ~ 5日11時 EAT に徐々に
視程6000m
TAF HAAB 041530Z 0418/0524 24007KT 8000 /BR/-RA BKN025 OVC080
BECMG 0502/0508 6000 SHRA/RA BKN022 OVC080